createdAt,value
2018-09-17T00:02:59.587Z,23.00
2018-09-17T00:08:03.099Z,23.00
2018-09-17T00:13:06.825Z,22.99
2018-09-17T00:18:10.630Z,22.98
2018-09-17T00:23:14.119Z,23.00
2018-09-17T00:28:17.572Z,23.02
2018-09-17T00:33:21.050Z,22.99
2018-09-17T00:38:24.576Z,22.96
2018-09-17T00:43:28.061Z,22.93
2018-09-17T00:48:31.625Z,22.88
2018-09-17T00:53:35.185Z,22.85
2018-09-17T00:58:38.631Z,22.79
2018-09-17T01:03:42.100Z,22.77
2018-09-17T01:08:45.576Z,22.74
2018-09-17T01:13:49.321Z,22.70
2018-09-17T01:18:52.776Z,22.66
2018-09-17T01:23:56.226Z,22.64
2018-09-17T01:28:59.675Z,22.61
2018-09-17T01:34:03.138Z,22.58
2018-09-17T01:39:08.531Z,22.54
2018-09-17T01:44:11.995Z,22.52
2018-09-17T01:49:15.593Z,22.47
2018-09-17T01:54:19.084Z,22.44
2018-09-17T01:59:22.602Z,22.41
2018-09-17T02:04:26.059Z,22.37
2018-09-17T02:09:29.524Z,22.34
2018-09-17T02:14:32.992Z,22.30
2018-09-17T02:19:36.799Z,22.28
2018-09-17T02:24:40.653Z,22.25
2018-09-17T02:29:44.096Z,22.22
2018-09-17T02:34:47.547Z,22.18
2018-09-17T02:39:51.016Z,22.18
2018-09-17T02:44:54.459Z,22.14
2018-09-17T02:49:57.894Z,22.11
2018-09-17T02:55:01.352Z,22.09
2018-09-17T03:00:06.265Z,22.07
2018-09-17T03:05:09.952Z,22.05
2018-09-17T03:10:13.469Z,22.04
2018-09-17T03:15:28.234Z,22.02
2018-09-17T03:20:31.939Z,22.01
2018-09-17T03:25:35.390Z,21.98
2018-09-17T03:30:38.848Z,21.96
2018-09-17T03:35:42.332Z,21.95
2018-09-17T03:40:45.771Z,21.92
2018-09-17T03:45:49.245Z,21.57
2018-09-17T03:50:52.690Z,21.48
2018-09-17T03:55:56.185Z,21.45
2018-09-17T04:01:00.303Z,21.31
2018-09-17T04:06:03.729Z,21.32
2018-09-17T04:11:07.159Z,21.24
2018-09-17T04:16:10.582Z,21.09
2018-09-17T04:21:14.077Z,21.02
2018-09-17T04:26:17.515Z,20.89
2018-09-17T04:31:20.950Z,20.88
2018-09-17T04:36:24.421Z,20.76
2018-09-17T04:41:27.931Z,20.47
2018-09-17T04:46:31.371Z,20.43
2018-09-17T04:51:34.825Z,20.27
2018-09-17T04:56:38.258Z,20.20
2018-09-17T05:01:41.755Z,20.13
2018-09-17T05:06:45.618Z,20.03
2018-09-17T05:11:49.063Z,19.82
2018-09-17T05:16:52.503Z,19.89
2018-09-17T05:21:55.967Z,19.80
2018-09-17T05:26:59.432Z,20.02
2018-09-17T05:32:02.883Z,19.96
2018-09-17T05:37:06.380Z,20.17
2018-09-17T05:42:09.863Z,19.96
2018-09-17T05:47:13.320Z,19.89
2018-09-17T05:52:16.766Z,20.08
2018-09-17T05:57:20.231Z,20.06
2018-09-17T06:02:23.676Z,20.17
2018-09-17T06:07:27.154Z,20.32
2018-09-17T06:12:30.643Z,20.08
2018-09-17T06:17:34.181Z,20.45
2018-09-17T06:22:37.626Z,20.17
2018-09-17T06:27:41.079Z,20.61
2018-09-17T06:32:44.532Z,20.37
2018-09-17T06:37:47.971Z,20.42
2018-09-17T06:42:51.419Z,20.40
2018-09-17T06:47:54.886Z,20.17
2018-09-17T06:52:58.327Z,19.79
2018-09-17T06:58:02.018Z,19.94
2018-09-17T07:03:05.492Z,19.70
2018-09-17T07:08:08.982Z,19.83
2018-09-17T07:13:12.435Z,19.95
2018-09-17T07:18:15.977Z,20.23
2018-09-17T07:23:19.454Z,20.20
2018-09-17T07:28:23.252Z,19.98
2018-09-17T07:33:26.691Z,20.29
2018-09-17T07:38:30.168Z,19.99
2018-09-17T07:43:33.642Z,19.93
2018-09-17T07:48:37.104Z,20.02
2018-09-17T07:53:40.543Z,20.22
2018-09-17T07:58:44.047Z,20.37
2018-09-17T08:03:47.513Z,20.30
2018-09-17T08:08:50.954Z,20.32
2018-09-17T08:13:54.434Z,20.37
2018-09-17T08:18:57.891Z,20.50
2018-09-17T08:24:01.331Z,20.49
2018-09-17T08:29:04.797Z,20.58
2018-09-17T08:34:08.273Z,20.77
2018-09-17T08:39:13.345Z,20.86
2018-09-17T08:44:16.804Z,20.97
2018-09-17T08:49:20.252Z,21.09
2018-09-17T08:54:23.697Z,21.07
2018-09-17T08:59:32.491Z,21.23
2018-09-17T09:04:41.312Z,21.33
2018-09-17T09:09:44.783Z,21.47
2018-09-17T09:14:52.374Z,21.58
2018-09-17T09:19:55.859Z,21.67
2018-09-17T09:24:59.322Z,21.75
2018-09-17T09:30:02.873Z,21.89
2018-09-17T09:35:06.316Z,21.92
2018-09-17T09:40:09.782Z,21.90
2018-09-17T09:45:13.589Z,22.01
2018-09-17T09:50:17.227Z,22.07
2018-09-17T09:55:20.691Z,22.11
2018-09-17T10:00:29.612Z,22.21
2018-09-17T10:05:33.060Z,22.28
2018-09-17T10:10:41.821Z,22.37
2018-09-17T10:15:48.358Z,22.31
2018-09-17T10:20:51.805Z,22.33
2018-09-17T10:25:55.272Z,22.36
2018-09-17T10:30:58.755Z,22.35
2018-09-17T10:36:02.261Z,22.45
2018-09-17T10:41:05.785Z,22.43
2018-09-17T10:46:09.259Z,22.48
2018-09-17T10:51:12.743Z,22.58
2018-09-17T10:56:16.227Z,22.66
2018-09-17T11:01:19.790Z,22.75
2018-09-17T11:06:23.268Z,22.80
2018-09-17T11:11:26.721Z,22.75
2018-09-17T11:16:30.205Z,22.64
2018-09-17T11:21:33.667Z,22.66
2018-09-17T11:26:37.156Z,22.63
2018-09-17T11:31:40.624Z,22.86
2018-09-17T11:36:44.132Z,22.81
2018-09-17T11:41:47.600Z,22.75
2018-09-17T11:46:51.059Z,22.78
2018-09-17T11:51:54.559Z,22.77
2018-09-17T11:56:58.023Z,22.80
2018-09-17T12:02:04.580Z,22.80
2018-09-17T12:07:13.394Z,22.83
2018-09-17T12:12:16.834Z,22.84
2018-09-17T12:17:20.298Z,22.86
2018-09-17T12:22:23.798Z,22.90
2018-09-17T12:27:27.271Z,22.84
2018-09-17T12:32:30.716Z,22.81
2018-09-17T12:37:34.188Z,22.87
2018-09-17T12:42:37.634Z,22.87
2018-09-17T12:47:41.144Z,22.86
2018-09-17T12:52:44.620Z,22.96
2018-09-17T12:57:48.062Z,22.92
2018-09-17T13:02:51.531Z,22.95
2018-09-17T13:07:54.977Z,22.95
2018-09-17T13:12:58.416Z,22.92
2018-09-17T13:18:01.899Z,22.92
2018-09-17T13:23:05.335Z,22.94
2018-09-17T13:28:08.828Z,23.11
2018-09-17T13:33:12.275Z,23.13
2018-09-17T13:38:15.752Z,23.05
2018-09-17T13:43:19.225Z,23.07
2018-09-17T13:48:22.722Z,23.06
2018-09-17T13:53:26.199Z,23.10
2018-09-17T13:58:29.660Z,23.09
2018-09-17T14:03:33.102Z,23.08
2018-09-17T14:08:36.576Z,23.07
2018-09-17T14:13:40.058Z,23.05
2018-09-17T14:18:43.531Z,23.04
2018-09-17T14:23:46.959Z,23.08
2018-09-17T14:28:50.429Z,23.05
2018-09-17T14:33:53.917Z,23.07
2018-09-17T14:38:57.372Z,23.03
2018-09-17T14:44:01.003Z,23.00
2018-09-17T14:49:04.465Z,23.02
2018-09-17T14:54:07.920Z,23.01
2018-09-17T14:59:11.426Z,23.03
2018-09-17T15:04:14.902Z,23.06
2018-09-17T15:09:18.395Z,23.08
2018-09-17T15:14:22.158Z,23.09
2018-09-17T15:19:25.626Z,23.14
2018-09-17T15:24:29.108Z,23.12
2018-09-17T15:29:32.553Z,23.12
2018-09-17T15:34:36.128Z,23.06
2018-09-17T15:39:39.598Z,23.06
2018-09-17T15:44:43.053Z,23.07
2018-09-17T15:49:46.646Z,23.11
2018-09-17T15:54:50.069Z,23.22
2018-09-17T15:59:53.543Z,23.25
2018-09-17T16:04:57.011Z,23.34
2018-09-17T16:10:00.553Z,23.39
2018-09-17T16:15:04.068Z,23.51
2018-09-17T16:20:07.657Z,23.56
2018-09-17T16:25:11.191Z,23.57
2018-09-17T16:30:14.635Z,23.54
2018-09-17T16:35:18.092Z,23.47
2018-09-17T16:40:21.643Z,23.46
2018-09-17T16:45:25.147Z,23.45
2018-09-17T16:50:28.756Z,23.53
2018-09-17T16:55:32.271Z,23.52
2018-09-17T17:00:35.712Z,23.50
2018-09-17T17:05:39.174Z,23.49
2018-09-17T17:10:42.724Z,23.53
2018-09-17T17:15:49.000Z,23.53
2018-09-17T17:20:52.448Z,23.54
2018-09-17T17:25:56.091Z,23.55
2018-09-17T17:30:59.571Z,23.57
2018-09-17T17:36:03.037Z,23.58
2018-09-17T17:41:07.878Z,23.60
2018-09-17T17:46:11.438Z,23.67
2018-09-17T17:51:14.798Z,23.70
2018-09-17T17:56:18.303Z,23.75
2018-09-17T18:01:22.048Z,23.61
2018-09-17T18:06:26.488Z,23.61
2018-09-17T18:11:29.955Z,23.64
2018-09-17T18:16:33.440Z,23.71
2018-09-17T18:21:37.050Z,23.75
2018-09-17T18:26:40.629Z,23.72
2018-09-17T18:31:44.170Z,23.76
2018-09-17T18:36:47.680Z,23.81
2018-09-17T18:41:51.162Z,23.79
2018-09-17T18:46:54.631Z,23.72
2018-09-17T18:51:58.108Z,23.74
2018-09-17T18:57:01.758Z,23.80
2018-09-17T19:02:05.395Z,23.85
2018-09-17T19:07:08.890Z,23.75
2018-09-17T19:12:12.536Z,23.78
2018-09-17T19:17:21.045Z,23.71
2018-09-17T19:22:29.860Z,23.72
2018-09-17T19:27:39.556Z,23.77
2018-09-17T19:32:43.259Z,23.81
2018-09-17T19:37:52.311Z,23.81
2018-09-17T19:42:55.834Z,23.79
2018-09-17T19:47:59.588Z,23.77
2018-09-17T19:53:03.183Z,23.77
2018-09-17T19:58:12.674Z,23.62
2018-09-17T20:03:16.170Z,23.61
2018-09-17T20:08:19.767Z,23.63
2018-09-17T20:13:23.264Z,23.57
2018-09-17T20:18:26.764Z,23.68
2018-09-17T20:23:30.267Z,23.65
2018-09-17T20:28:33.721Z,23.64
2018-09-17T20:33:37.354Z,23.62
2018-09-17T20:38:40.875Z,23.61
2018-09-17T20:43:44.335Z,23.61
2018-09-17T20:48:48.644Z,23.60
2018-09-17T20:53:52.116Z,23.58
2018-09-17T20:58:55.678Z,23.58
2018-09-17T21:03:59.130Z,23.58
2018-09-17T21:09:02.846Z,23.56
2018-09-17T21:14:06.818Z,23.56
2018-09-17T21:19:10.428Z,23.55
2018-09-17T21:24:13.819Z,23.57
2018-09-17T21:29:17.341Z,23.56
2018-09-17T21:34:20.839Z,23.53
2018-09-17T21:39:24.364Z,23.51
2018-09-17T21:44:27.850Z,23.55
2018-09-17T21:49:31.374Z,23.57
2018-09-17T21:54:34.889Z,23.60
2018-09-17T21:59:38.373Z,23.58
2018-09-17T22:04:41.907Z,23.57
2018-09-17T22:09:45.437Z,23.56
2018-09-17T22:14:48.975Z,23.51
2018-09-17T22:19:52.468Z,23.51
2018-09-17T22:24:55.997Z,23.50
2018-09-17T22:29:59.471Z,23.51
2018-09-17T22:35:02.974Z,23.48
2018-09-17T22:40:06.677Z,23.48
2018-09-17T22:45:10.230Z,23.48
2018-09-17T22:50:13.748Z,23.49
2018-09-17T22:55:17.285Z,23.47
2018-09-17T23:00:20.791Z,23.44
2018-09-17T23:05:24.270Z,23.43
2018-09-17T23:10:27.811Z,23.46
2018-09-17T23:15:31.311Z,23.42
2018-09-17T23:20:34.790Z,23.45
2018-09-17T23:25:38.232Z,23.45
2018-09-17T23:30:41.718Z,23.46
2018-09-17T23:35:45.268Z,23.46
2018-09-17T23:40:48.734Z,23.48
2018-09-17T23:45:52.179Z,23.43
2018-09-17T23:50:55.658Z,23.43
2018-09-17T23:55:59.132Z,23.43
